Flight Track Log - Related Links

Times and Time Zones

All times are in EDT time to prevent confusion due to time zone crossing. See the AMX205 flight status page for this flight to view local times or setup timezone preferences in your user account.

Time Position Orientation Groundspeed Altitude Reporting Facility
EDT Latitude Longitude Course Direction KTS MPH feet Rate Location/Type
Thu 07:10:01 AM 25.5830 -103.4270 314° West 187 215 4,600  Level FlightAware ADS-B
Thu 07:10:27 AM 25.5980 -103.4440 314° West 209 241 5,300 1,435 Climbing FlightAware ADS-B
Thu 07:10:47 AM 25.6120 -103.4580 318° Northwest 238 274 5,700 2,000 Climbing FlightAware ADS-B
Thu 07:10:57 AM 25.6220 -103.4690 315° West 243 280 6,300 2,700 Climbing FlightAware ADS-B
Thu 07:11:27 AM 25.6480 -103.4970 316° Northwest 271 312 7,500 2,471 Climbing FlightAware ADS-B
Thu 07:11:48 AM 25.6640 -103.5130 318° Northwest 272 313 8,400 2,270 Climbing FlightAware ADS-B
Thu 07:12:04 AM 25.6750 -103.5160 346° North 269 310 8,900 3,652 Climbing FlightAware ADS-B
Thu 07:12:34 AM 25.7180 -103.4960 23° Northeast 255 293 11,200 4,091 Climbing FlightAware ADS-B
Thu 07:12:48 AM 25.7280 -103.4800 55° Northeast 261 300 11,900 3,000 Climbing FlightAware ADS-B
Thu 07:13:04 AM 25.7320 -103.4570 79° East 269 310 12,700 2,488 Climbing FlightAware ADS-B
Thu 07:13:29 AM 25.7260 -103.4310 104° East 278 320 13,600 2,143 Climbing FlightAware ADS-B
Thu 07:13:46 AM 25.7060 -103.4090 135° Southeast 294 338 14,200 1,615 Climbing FlightAware ADS-B
Thu 07:13:55 AM 25.6920 -103.4040 162° South 319 367 14,300 600 Climbing FlightAware ADS-B
Thu 07:14:06 AM 25.6800 -103.4030 176° South 331 381 14,400 1,705 Climbing FlightAware ADS-B
Thu 07:15:23 AM 25.5440 -103.3930 176° South 393 452 16,800 2,284 Climbing FlightAware ADS-B
Thu 07:16:20 AM 25.4560 -103.3250 145° Southeast 400 460 19,500 2,675 Climbing FlightAware ADS-B
Thu 07:16:46 AM 25.4230 -103.3000 146° Southeast 404 465 20,500 2,545 Climbing FlightAware ADS-B
Thu 07:17:26 AM 25.3600 -103.2510 145° Southeast 407 468 22,300 2,475 Climbing FlightAware ADS-B
Thu 07:18:06 AM 25.2990 -103.2030 145° Southeast 413 475 23,800 2,023 Climbing FlightAware ADS-B
Thu 07:18:52 AM 25.2250 -103.1470 146° Southeast 424 488 25,200 1,756 Climbing FlightAware ADS-B
Thu 07:19:28 AM 25.1670 -103.1030 146° Southeast 434 499 26,200 987 Climbing FlightAware ADS-B
Thu 07:21:30 AM 25.0490 -103.0120 145° Southeast 459 528 27,800 1,789 Climbing FlightAware ADS-B
Thu 07:22:09 AM 24.8880 -102.8890 145° Southeast 455 524 31,000 3,200 Climbing FlightAware ADS-B
Thu 07:22:45 AM 24.8250 -102.8410 145° Southeast 461 531 31,800 1,395 Climbing FlightAware ADS-B
Thu 07:23:35 AM 24.7360 -102.7730 145° Southeast 468 539 33,000 1,753 Climbing FlightAware ADS-B
Thu 07:24:14 AM 24.6730 -102.7250 145° Southeast 457 526 34,400 2,100 Climbing FlightAware ADS-B
Thu 07:24:55 AM 24.5990 -102.6690 145° Southeast 447 514 35,800 1,653 Climbing FlightAware ADS-B
Thu 07:25:52 AM 24.4990 -102.5930 145° Southeast 445 512 37,100 1,277 Climbing FlightAware ADS-B
Thu 07:26:29 AM 24.4400 -102.5480 145° Southeast 446 513 37,800 1,116 Climbing FlightAware ADS-B
Thu 07:27:18 AM 24.3570 -102.4850 145° Southeast 446 513 38,700 791 Climbing FlightAware ADS-B
Thu 07:28:00 AM 24.2850 -102.4310 146° Southeast 453 521 39,000 217 Climbing FlightAware ADS-B
Thu 07:28:41 AM 24.2110 -102.3750 145° Southeast 462 532 39,000  Level FlightAware ADS-B
Thu 07:29:22 AM 24.1380 -102.3200 145° Southeast 464 534 39,000  Level FlightAware ADS-B
Thu 07:30:04 AM 24.0670 -102.2670 146° Southeast 465 535 39,000  Level FlightAware ADS-B
Thu 07:30:36 AM 24.0190 -102.2310 146° Southeast 465 535 39,000  Level FlightAware ADS-B
Thu 07:31:39 AM 23.9030 -102.1440 146° Southeast 465 535 39,000  Level FlightAware ADS-B
Thu 07:32:19 AM 23.8240 -102.0860 146° Southeast 464 534 39,000  Level FlightAware ADS-B
Thu 07:33:02 AM 23.7470 -102.0280 145° Southeast 462 532 39,000  Level FlightAware ADS-B
Thu 07:33:41 AM 23.6800 -101.9780 146° Southeast 461 531 39,000  Level FlightAware ADS-B
Thu 07:34:27 AM 23.5980 -101.9170 146° Southeast 460 529 39,000  Level FlightAware ADS-B
Thu 07:35:06 AM 23.5310 -101.8670 146° Southeast 459 528 39,000  Level FlightAware ADS-B
Thu 07:36:01 AM 23.4430 -101.8020 146° Southeast 458 527 39,000  Level FlightAware ADS-B
Thu 07:36:49 AM 23.3560 -101.7370 146° Southeast 458 527 39,000  Level FlightAware ADS-B
Thu 07:37:44 AM 23.2570 -101.6630 146° Southeast 458 527 39,000  Level FlightAware ADS-B
Thu 07:38:21 AM 23.2030 -101.6220 145° Southeast 458 527 39,000  Level FlightAware ADS-B
Thu 07:39:10 AM 23.1300 -101.5670 145° Southeast 458 527 39,000  Level FlightAware ADS-B
Thu 07:39:46 AM 23.0770 -101.5260 145° Southeast 458 527 39,000  Level FlightAware ADS-B
Thu 07:40:28 AM 23.0150 -101.4790 145° Southeast 458 527 39,000  Level FlightAware ADS-B
Thu 07:41:07 AM 22.9050 -101.4040 148° Southeast 458 527 39,000  Level FlightAware ADS-B
Thu 07:41:55 AM 22.8110 -101.3360 146° Southeast 460 529 39,000  Level FlightAware ADS-B
Thu 07:42:37 AM 22.7480 -101.2880 145° Southeast 460 529 39,000  Level FlightAware ADS-B
Thu 07:44:17 AM 22.5600 -101.1510 146° Southeast 460 529 39,000  Level FlightAware ADS-B
Thu 07:44:58 AM 22.4870 -101.0980 146° Southeast 460 529 39,000  Level FlightAware ADS-B
Thu 07:46:09 AM 22.4100 -101.0420 146° Southeast 460 529 39,000  Level FlightAware ADS-B
Thu 07:46:48 AM 22.2930 -100.9570 146° Southeast 459 528 39,000  Level FlightAware ADS-B
Thu 07:47:30 AM 22.2310 -100.8840 133° Southeast 461 531 39,000  Level FlightAware ADS-B
Thu 07:48:16 AM 22.1830 -100.7960 120° Southeast 461 531 39,000  Level FlightAware ADS-B
Thu 07:48:54 AM 22.1430 -100.7220 120° Southeast 461 531 39,000  Level FlightAware ADS-B
Thu 07:49:39 AM 22.0940 -100.6320 120° Southeast 461 531 39,000  Level FlightAware ADS-B
Thu 07:50:20 AM 22.0490 -100.5480 120° Southeast 458 527 39,000  Level FlightAware ADS-B
Thu 07:51:02 AM 22.0040 -100.4660 121° Southeast 455 524 39,000  Level FlightAware ADS-B
Thu 07:51:43 AM 21.9610 -100.3880 121° Southeast 455 524 39,000  Level FlightAware ADS-B
Thu 07:52:38 AM 21.9010 -100.2800 121° Southeast 453 521 39,000  Level FlightAware ADS-B
Thu 07:53:19 AM 21.8510 -100.2200 132° Southeast 451 519 39,000  Level FlightAware ADS-B
Thu 07:53:50 AM 21.7800 -100.1880 157° South 446 513 39,000  Level FlightAware ADS-B
Thu 07:54:30 AM 21.7070 -100.1460 152° Southeast 446 513 39,000  Level FlightAware ADS-B
Thu 07:55:08 AM 21.6390 -100.1070 152° Southeast 445 512 39,000  Level FlightAware ADS-B
Thu 07:56:04 AM 21.5470 -100.0530 151° Southeast 444 511 39,000  Level FlightAware ADS-B
Thu 07:56:54 AM 21.4550 -100.0000 152° Southeast 444 511 39,000  Level FlightAware ADS-B
Thu 07:57:48 AM 21.3480 -99.9400 152° Southeast 446 513 39,000  Level FlightAware ADS-B
Thu 07:58:38 AM 21.2710 -99.8950 151° Southeast 446 513 39,000  Level FlightAware ADS-B
Thu 07:59:12 AM 21.2190 -99.8630 150° Southeast 446 513 39,000  Level FlightAware ADS-B
Thu 08:00:14 AM 21.0950 -99.7940 153° Southeast 446 513 39,000  Level FlightAware ADS-B
Thu 08:00:51 AM 21.0380 -99.7600 151° Southeast 446 513 39,000  Level FlightAware ADS-B
Thu 08:01:41 AM 20.9610 -99.7150 151° Southeast 446 513 39,000  Level FlightAware ADS-B
Thu 08:02:17 AM 20.9060 -99.6820 151° Southeast 446 513 39,000 -3,570 Level FlightAware ADS-B
Thu 08:03:00 AM 20.7810 -99.6160 154° Southeast 444 511 34,300 -3,133 Descending FlightAware ADS-B
Thu 08:03:47 AM 20.7090 -99.5740 151° Southeast 444 511 34,300 -2,460 Level FlightAware ADS-B
Thu 08:04:40 AM 20.6010 -99.5140 153° Southeast 427 491 30,200 -2,636 Descending FlightAware ADS-B
Thu 08:05:34 AM 20.5320 -99.4740 152° Southeast 426 490 29,600 -1,277 Descending FlightAware ADS-B
Thu 08:06:14 AM 20.4470 -99.4260 152° Southeast 422 486 28,200 -1,024 Descending FlightAware ADS-B
Thu 08:06:56 AM 20.3860 -99.3900 151° Southeast 422 486 28,200  Level FlightAware ADS-B
Thu 08:07:43 AM 20.3180 -99.3490 151° Southeast 422 486 28,200  Level FlightAware ADS-B
Thu 08:08:19 AM 20.2650 -99.3190 152° Southeast 422 486 28,200  Level FlightAware ADS-B
Thu 08:09:07 AM 20.1960 -99.2770 150° Southeast 422 486 28,200  Level FlightAware ADS-B
Thu 08:09:45 AM 20.1400 -99.2450 152° Southeast 422 486 28,200 -3,739 Level FlightAware ADS-B
Thu 08:11:25 AM 19.9680 -99.1570 154° Southeast 321 369 19,600 -4,000 Descending FlightAware ADS-B
Thu 08:12:09 AM 19.9120 -99.1240 151° Southeast 320 368 18,600 -1,326 Descending FlightAware ADS-B
Thu 08:12:51 AM 19.8520 -99.1210 177° South 322 371 17,700 -1,463 Descending FlightAware ADS-B
Thu 08:13:31 AM 19.7940 -99.1430 200° South 311 358 16,600 -1,571 Descending FlightAware ADS-B
Thu 08:14:15 AM 19.7370 -99.1640 199° South 283 326 15,500 -1,432 Descending FlightAware ADS-B
Thu 08:14:59 AM 19.6840 -99.1820 198° South 260 299 14,500 -1,286 Descending FlightAware ADS-B
Thu 08:15:39 AM 19.6400 -99.1980 199° South 242 278 13,700 -1,171 Descending FlightAware ADS-B
Thu 08:16:21 AM 19.5970 -99.2130 198° South 228 262 12,900 -1,139 Descending FlightAware ADS-B
Thu 08:16:58 AM 19.5600 -99.2260 198° South 230 265 12,200 -1,171 Descending FlightAware ADS-B
Thu 08:17:43 AM 19.5130 -99.2170 170° South 227 261 11,300 -1,129 Descending FlightAware ADS-B
Thu 08:18:23 AM 19.4720 -99.2060 166° South 226 260 10,600 -1,116 Descending FlightAware ADS-B
Thu 08:19:09 AM 19.4260 -99.1940 166° South 217 250 9,700 -1,169 Descending FlightAware ADS-B
Thu 08:19:40 AM 19.3960 -99.1860 166° South 213 245 9,100 -1,286 Descending FlightAware ADS-B
Thu 08:19:51 AM 19.3870 -99.1780 140° Southeast 200 230 8,800 -900 Descending FlightAware ADS-B
Thu 08:20:00 AM 19.3850 -99.1720 109° East 186 214 8,800 -486 Level FlightAware ADS-B
Thu 08:20:28 AM 19.3920 -99.1490 72° East 168 193 8,500 -409 Descending FlightAware ADS-B
Thu 08:21:28 AM 19.3970 -99.1390 62° Northeast 164 189 8,200 -625 Descending FlightAware ADS-B
Thu 08:22:04 AM 19.4250 -99.0890 59° Northeast 166 191 7,500 -1,167 Descending FlightAware ADS-B
Thu 08:24:00 AM 19.4363 -99.0721 55° Northeast  Level Estimated
Thu 08:25:00 AM 19.4363 -99.0721 43° Northeast  Level Estimated
Thu 08:26:00 AM 19.4363 -99.0721 43° Northeast  Level Estimated
Thu 08:27:00 AM 19.4363 -99.0721 43° Northeast  Level Estimated
Thu 08:28:00 AM 19.4363 -99.0721 43° Northeast  Level Estimated
Thu 08:29:00 AM 19.4363 -99.0721 43° Northeast  Level Estimated
Thu 08:30:00 AM 19.4363 -99.0721 43° Northeast  Level Estimated
Thu 08:31:00 AM 19.4363 -99.0721 43° Northeast  Level Estimated
Thu 08:32:00 AM 19.4363 -99.0721 43° Northeast  Level Estimated
Thu 08:33:00 AM 19.4363 -99.0721 43° Northeast  Level Estimated
Thu 08:34:00 AM 19.4363 -99.0721 43° Northeast  Level Estimated
Thu 08:35:00 AM 19.4363 -99.0721 43° Northeast  Level Estimated
Thu 08:36:00 AM 19.4363 -99.0721 43° Northeast  Level Estimated
Thu 08:37:00 AM 19.4363 -99.0721 43° Northeast  Level Estimated
Thu 08:38:00 AM 19.4363 -99.0721 43° Northeast  Level Estimated

Login

Don't have an account? Register now (free) for customized features, flight alerts, and more!